sensor_id;sensor_type;location;lat;lon;timestamp;P1;durP1;ratioP1;P2;durP2;ratioP2
18505;SDS011;9382;53.242;10.438;2022-09-09T00:00:47;39.03;;;18.90;;
18505;SDS011;9382;53.242;10.438;2022-09-09T00:03:22;37.40;;;18.50;;
18505;SDS011;9382;53.242;10.438;2022-09-09T00:05:54;35.63;;;17.13;;
18505;SDS011;9382;53.242;10.438;2022-09-09T00:08:32;38.73;;;18.03;;
18505;SDS011;9382;53.242;10.438;2022-09-09T00:11:05;40.00;;;18.37;;
18505;SDS011;9382;53.242;10.438;2022-09-09T00:13:34;36.93;;;17.93;;
18505;SDS011;9382;53.242;10.438;2022-09-09T00:16:08;34.80;;;17.70;;
18505;SDS011;9382;53.242;10.438;2022-09-09T00:18:46;37.83;;;18.97;;
18505;SDS011;9382;53.242;10.438;2022-09-09T00:21:23;37.83;;;19.07;;
18505;SDS011;9382;53.242;10.438;2022-09-09T00:23:57;39.93;;;18.50;;
18505;SDS011;9382;53.242;10.438;2022-09-09T00:26:26;36.03;;;17.90;;
18505;SDS011;9382;53.242;10.438;2022-09-09T00:29:03;35.77;;;18.23;;
18505;SDS011;9382;53.242;10.438;2022-09-09T00:31:39;35.87;;;18.20;;
18505;SDS011;9382;53.242;10.438;2022-09-09T00:34:09;34.70;;;18.00;;
18505;SDS011;9382;53.242;10.438;2022-09-09T00:36:39;34.97;;;17.63;;
18505;SDS011;9382;53.242;10.438;2022-09-09T00:39:09;41.00;;;19.00;;
18505;SDS011;9382;53.242;10.438;2022-09-09T00:44:39;43.90;;;19.97;;
18505;SDS011;9382;53.242;10.438;2022-09-09T00:47:21;40.17;;;18.50;;
18505;SDS011;9382;53.242;10.438;2022-09-09T00:50:09;43.43;;;19.50;;
18505;SDS011;9382;53.242;10.438;2022-09-09T00:52:56;43.70;;;20.50;;
18505;SDS011;9382;53.242;10.438;2022-09-09T00:55:33;45.00;;;19.83;;
18505;SDS011;9382;53.242;10.438;2022-09-09T00:58:08;45.73;;;20.33;;
18505;SDS011;9382;53.242;10.438;2022-09-09T01:00:37;42.40;;;20.33;;
18505;SDS011;9382;53.242;10.438;2022-09-09T01:03:19;38.80;;;19.33;;
18505;SDS011;9382;53.242;10.438;2022-09-09T01:05:55;45.57;;;20.97;;
18505;SDS011;9382;53.242;10.438;2022-09-09T01:08:35;45.13;;;20.40;;
18505;SDS011;9382;53.242;10.438;2022-09-09T01:11:10;46.30;;;19.57;;
18505;SDS011;9382;53.242;10.438;2022-09-09T01:13:46;43.90;;;20.30;;
18505;SDS011;9382;53.242;10.438;2022-09-09T01:16:19;38.90;;;18.87;;
18505;SDS011;9382;53.242;10.438;2022-09-09T01:18:48;45.40;;;19.73;;
18505;SDS011;9382;53.242;10.438;2022-09-09T01:21:20;47.13;;;20.53;;
18505;SDS011;9382;53.242;10.438;2022-09-09T01:24:03;47.93;;;21.27;;
18505;SDS011;9382;53.242;10.438;2022-09-09T01:26:41;52.90;;;22.37;;
18505;SDS011;9382;53.242;10.438;2022-09-09T01:29:10;48.40;;;20.87;;
18505;SDS011;9382;53.242;10.438;2022-09-09T01:31:40;48.07;;;21.00;;
18505;SDS011;9382;53.242;10.438;2022-09-09T01:34:09;47.87;;;21.50;;
18505;SDS011;9382;53.242;10.438;2022-09-09T01:36:38;49.17;;;22.50;;
18505;SDS011;9382;53.242;10.438;2022-09-09T01:39:08;46.53;;;21.47;;
18505;SDS011;9382;53.242;10.438;2022-09-09T01:41:36;45.80;;;21.30;;
18505;SDS011;9382;53.242;10.438;2022-09-09T01:44:04;46.40;;;20.87;;
18505;SDS011;9382;53.242;10.438;2022-09-09T01:46:32;47.00;;;21.40;;
18505;SDS011;9382;53.242;10.438;2022-09-09T01:48:58;51.07;;;22.43;;
18505;SDS011;9382;53.242;10.438;2022-09-09T01:51:28;52.40;;;22.20;;
18505;SDS011;9382;53.242;10.438;2022-09-09T01:53:55;50.27;;;21.50;;
18505;SDS011;9382;53.242;10.438;2022-09-09T01:56:25;50.10;;;21.33;;
18505;SDS011;9382;53.242;10.438;2022-09-09T01:59:05;46.80;;;21.73;;
18505;SDS011;9382;53.242;10.438;2022-09-09T02:01:41;42.63;;;20.57;;
18505;SDS011;9382;53.242;10.438;2022-09-09T02:04:17;43.50;;;20.83;;
18505;SDS011;9382;53.242;10.438;2022-09-09T02:06:51;41.97;;;20.60;;
18505;SDS011;9382;53.242;10.438;2022-09-09T02:09:22;44.50;;;21.30;;
18505;SDS011;9382;53.242;10.438;2022-09-09T02:11:50;43.80;;;19.80;;
18505;SDS011;9382;53.242;10.438;2022-09-09T02:14:26;46.77;;;21.60;;
18505;SDS011;9382;53.242;10.438;2022-09-09T02:16:57;44.17;;;20.43;;
18505;SDS011;9382;53.242;10.438;2022-09-09T02:19:28;46.80;;;20.73;;
18505;SDS011;9382;53.242;10.438;2022-09-09T02:21:59;42.33;;;20.73;;
18505;SDS011;9382;53.242;10.438;2022-09-09T02:24:27;49.13;;;22.13;;
18505;SDS011;9382;53.242;10.438;2022-09-09T02:26:55;44.00;;;20.13;;
18505;SDS011;9382;53.242;10.438;2022-09-09T02:29:28;37.67;;;18.77;;
18505;SDS011;9382;53.242;10.438;2022-09-09T02:31:58;43.97;;;19.50;;
18505;SDS011;9382;53.242;10.438;2022-09-09T02:34:28;40.67;;;20.17;;
18505;SDS011;9382;53.242;10.438;2022-09-09T02:36:57;39.87;;;18.53;;
18505;SDS011;9382;53.242;10.438;2022-09-09T02:39:26;38.40;;;18.80;;
18505;SDS011;9382;53.242;10.438;2022-09-09T02:41:53;40.27;;;19.40;;
18505;SDS011;9382;53.242;10.438;2022-09-09T02:44:21;39.17;;;20.33;;
18505;SDS011;9382;53.242;10.438;2022-09-09T02:47:02;34.93;;;17.27;;
18505;SDS011;9382;53.242;10.438;2022-09-09T02:49:52;34.50;;;17.20;;
18505;SDS011;9382;53.242;10.438;2022-09-09T02:52:30;35.80;;;17.70;;
18505;SDS011;9382;53.242;10.438;2022-09-09T02:55:04;35.00;;;17.10;;
18505;SDS011;9382;53.242;10.438;2022-09-09T02:57:37;36.43;;;17.47;;
18505;SDS011;9382;53.242;10.438;2022-09-09T03:00:06;34.10;;;18.27;;
18505;SDS011;9382;53.242;10.438;2022-09-09T03:02:35;37.47;;;16.57;;
18505;SDS011;9382;53.242;10.438;2022-09-09T03:05:02;35.27;;;17.63;;
18505;SDS011;9382;53.242;10.438;2022-09-09T03:07:30;33.43;;;17.97;;
18505;SDS011;9382;53.242;10.438;2022-09-09T03:09:56;33.93;;;17.90;;
18505;SDS011;9382;53.242;10.438;2022-09-09T03:12:23;33.57;;;17.47;;
18505;SDS011;9382;53.242;10.438;2022-09-09T03:14:50;32.07;;;16.27;;
18505;SDS011;9382;53.242;10.438;2022-09-09T03:17:17;34.67;;;17.47;;
18505;SDS011;9382;53.242;10.438;2022-09-09T03:19:45;31.23;;;16.13;;
18505;SDS011;9382;53.242;10.438;2022-09-09T03:22:14;32.37;;;17.00;;
18505;SDS011;9382;53.242;10.438;2022-09-09T03:24:41;31.70;;;16.10;;
18505;SDS011;9382;53.242;10.438;2022-09-09T03:27:08;33.53;;;16.87;;
18505;SDS011;9382;53.242;10.438;2022-09-09T03:29:35;32.10;;;16.67;;
18505;SDS011;9382;53.242;10.438;2022-09-09T03:32:02;29.03;;;15.47;;
18505;SDS011;9382;53.242;10.438;2022-09-09T03:34:28;27.90;;;15.27;;
18505;SDS011;9382;53.242;10.438;2022-09-09T03:36:57;30.23;;;16.03;;
18505;SDS011;9382;53.242;10.438;2022-09-09T03:39:24;31.60;;;16.20;;
18505;SDS011;9382;53.242;10.438;2022-09-09T03:41:50;28.57;;;15.87;;
18505;SDS011;9382;53.242;10.438;2022-09-09T03:44:17;34.03;;;17.20;;
18505;SDS011;9382;53.242;10.438;2022-09-09T03:46:44;35.27;;;16.20;;
18505;SDS011;9382;53.242;10.438;2022-09-09T03:49:10;35.37;;;18.03;;
18505;SDS011;9382;53.242;10.438;2022-09-09T03:51:37;35.47;;;16.97;;
18505;SDS011;9382;53.242;10.438;2022-09-09T03:54:06;31.97;;;17.07;;
18505;SDS011;9382;53.242;10.438;2022-09-09T03:56:35;35.37;;;17.50;;
18505;SDS011;9382;53.242;10.438;2022-09-09T03:59:02;32.00;;;16.63;;
18505;SDS011;9382;53.242;10.438;2022-09-09T04:01:29;28.77;;;17.03;;
18505;SDS011;9382;53.242;10.438;2022-09-09T04:03:56;33.93;;;17.73;;
18505;SDS011;9382;53.242;10.438;2022-09-09T04:06:24;30.63;;;16.23;;
18505;SDS011;9382;53.242;10.438;2022-09-09T04:08:51;31.27;;;16.37;;
18505;SDS011;9382;53.242;10.438;2022-09-09T04:11:19;37.07;;;16.60;;
18505;SDS011;9382;53.242;10.438;2022-09-09T04:13:46;29.33;;;15.93;;
18505;SDS011;9382;53.242;10.438;2022-09-09T04:16:13;32.13;;;16.27;;
18505;SDS011;9382;53.242;10.438;2022-09-09T04:18:40;33.77;;;16.97;;
18505;SDS011;9382;53.242;10.438;2022-09-09T04:21:08;34.33;;;16.47;;
18505;SDS011;9382;53.242;10.438;2022-09-09T04:23:37;29.70;;;16.27;;
18505;SDS011;9382;53.242;10.438;2022-09-09T04:26:04;31.70;;;17.17;;
18505;SDS011;9382;53.242;10.438;2022-09-09T04:28:34;29.23;;;15.93;;
18505;SDS011;9382;53.242;10.438;2022-09-09T04:31:05;28.73;;;16.00;;
18505;SDS011;9382;53.242;10.438;2022-09-09T04:33:34;27.50;;;14.67;;
18505;SDS011;9382;53.242;10.438;2022-09-09T04:36:01;27.97;;;14.70;;
18505;SDS011;9382;53.242;10.438;2022-09-09T04:38:28;28.77;;;14.90;;
18505;SDS011;9382;53.242;10.438;2022-09-09T04:40:55;27.20;;;14.80;;
18505;SDS011;9382;53.242;10.438;2022-09-09T04:43:22;27.00;;;14.90;;
18505;SDS011;9382;53.242;10.438;2022-09-09T04:45:52;28.07;;;13.80;;
18505;SDS011;9382;53.242;10.438;2022-09-09T04:48:19;24.17;;;13.93;;
18505;SDS011;9382;53.242;10.438;2022-09-09T04:50:53;25.50;;;14.27;;
18505;SDS011;9382;53.242;10.438;2022-09-09T04:53:20;26.53;;;14.37;;
18505;SDS011;9382;53.242;10.438;2022-09-09T04:55:47;23.43;;;13.27;;
18505;SDS011;9382;53.242;10.438;2022-09-09T04:58:15;20.40;;;12.03;;
18505;SDS011;9382;53.242;10.438;2022-09-09T05:00:42;24.77;;;12.83;;
18505;SDS011;9382;53.242;10.438;2022-09-09T05:03:10;20.47;;;11.70;;
18505;SDS011;9382;53.242;10.438;2022-09-09T05:05:37;20.33;;;12.23;;
18505;SDS011;9382;53.242;10.438;2022-09-09T05:08:05;18.50;;;11.70;;
18505;SDS011;9382;53.242;10.438;2022-09-09T05:10:33;18.60;;;11.23;;
18505;SDS011;9382;53.242;10.438;2022-09-09T05:13:00;20.30;;;11.10;;
18505;SDS011;9382;53.242;10.438;2022-09-09T05:15:27;18.33;;;10.93;;
18505;SDS011;9382;53.242;10.438;2022-09-09T05:17:56;16.80;;;9.60;;
18505;SDS011;9382;53.242;10.438;2022-09-09T05:20:25;15.07;;;9.47;;
18505;SDS011;9382;53.242;10.438;2022-09-09T05:22:52;14.60;;;8.97;;
18505;SDS011;9382;53.242;10.438;2022-09-09T05:25:19;13.03;;;8.27;;
18505;SDS011;9382;53.242;10.438;2022-09-09T05:27:47;12.10;;;8.13;;
18505;SDS011;9382;53.242;10.438;2022-09-09T05:30:14;12.90;;;8.00;;
18505;SDS011;9382;53.242;10.438;2022-09-09T05:32:41;12.17;;;7.93;;
18505;SDS011;9382;53.242;10.438;2022-09-09T05:35:08;12.53;;;8.27;;
18505;SDS011;9382;53.242;10.438;2022-09-09T05:37:36;14.10;;;8.37;;
18505;SDS011;9382;53.242;10.438;2022-09-09T05:40:03;13.03;;;8.30;;
18505;SDS011;9382;53.242;10.438;2022-09-09T05:42:30;14.73;;;8.67;;
18505;SDS011;9382;53.242;10.438;2022-09-09T05:44:57;12.60;;;7.80;;
18505;SDS011;9382;53.242;10.438;2022-09-09T05:47:24;14.53;;;7.83;;
18505;SDS011;9382;53.242;10.438;2022-09-09T05:49:52;13.23;;;7.67;;
18505;SDS011;9382;53.242;10.438;2022-09-09T05:52:19;12.03;;;7.30;;
18505;SDS011;9382;53.242;10.438;2022-09-09T05:54:47;11.10;;;7.20;;
18505;SDS011;9382;53.242;10.438;2022-09-09T05:57:14;13.37;;;6.50;;
18505;SDS011;9382;53.242;10.438;2022-09-09T05:59:41;12.30;;;6.80;;
18505;SDS011;9382;53.242;10.438;2022-09-09T06:02:07;10.17;;;6.30;;
18505;SDS011;9382;53.242;10.438;2022-09-09T06:04:35;13.10;;;5.77;;
18505;SDS011;9382;53.242;10.438;2022-09-09T06:07:02;9.30;;;6.30;;
18505;SDS011;9382;53.242;10.438;2022-09-09T06:09:28;8.77;;;5.80;;
18505;SDS011;9382;53.242;10.438;2022-09-09T06:11:56;8.77;;;6.10;;
18505;SDS011;9382;53.242;10.438;2022-09-09T06:14:23;8.23;;;5.67;;
18505;SDS011;9382;53.242;10.438;2022-09-09T06:16:52;13.73;;;6.00;;
18505;SDS011;9382;53.242;10.438;2022-09-09T06:19:18;8.30;;;4.90;;
18505;SDS011;9382;53.242;10.438;2022-09-09T06:21:45;6.40;;;4.97;;
18505;SDS011;9382;53.242;10.438;2022-09-09T06:24:12;11.53;;;4.80;;
18505;SDS011;9382;53.242;10.438;2022-09-09T06:26:42;8.00;;;5.07;;
18505;SDS011;9382;53.242;10.438;2022-09-09T06:29:11;6.47;;;5.23;;
18505;SDS011;9382;53.242;10.438;2022-09-09T06:31:38;9.53;;;5.60;;
18505;SDS011;9382;53.242;10.438;2022-09-09T06:34:06;10.53;;;5.23;;
18505;SDS011;9382;53.242;10.438;2022-09-09T06:36:34;6.33;;;5.00;;
18505;SDS011;9382;53.242;10.438;2022-09-09T06:39:03;6.97;;;5.20;;
18505;SDS011;9382;53.242;10.438;2022-09-09T06:41:30;7.73;;;5.00;;
18505;SDS011;9382;53.242;10.438;2022-09-09T06:43:58;12.90;;;5.10;;
18505;SDS011;9382;53.242;10.438;2022-09-09T06:46:27;11.73;;;5.20;;
18505;SDS011;9382;53.242;10.438;2022-09-09T06:48:55;8.07;;;4.80;;
18505;SDS011;9382;53.242;10.438;2022-09-09T06:51:25;7.73;;;4.77;;
18505;SDS011;9382;53.242;10.438;2022-09-09T06:53:53;6.17;;;5.07;;
18505;SDS011;9382;53.242;10.438;2022-09-09T06:56:23;5.87;;;4.70;;
18505;SDS011;9382;53.242;10.438;2022-09-09T06:58:52;7.43;;;5.07;;
18505;SDS011;9382;53.242;10.438;2022-09-09T07:01:21;8.13;;;5.00;;
18505;SDS011;9382;53.242;10.438;2022-09-09T07:03:50;8.33;;;4.73;;
18505;SDS011;9382;53.242;10.438;2022-09-09T07:06:19;8.97;;;4.77;;
18505;SDS011;9382;53.242;10.438;2022-09-09T07:08:49;7.30;;;4.63;;
18505;SDS011;9382;53.242;10.438;2022-09-09T07:11:16;6.87;;;4.17;;
18505;SDS011;9382;53.242;10.438;2022-09-09T07:13:44;4.17;;;3.77;;
18505;SDS011;9382;53.242;10.438;2022-09-09T07:16:11;5.63;;;3.77;;
18505;SDS011;9382;53.242;10.438;2022-09-09T07:18:39;7.67;;;4.00;;
18505;SDS011;9382;53.242;10.438;2022-09-09T07:21:08;7.03;;;3.70;;
18505;SDS011;9382;53.242;10.438;2022-09-09T07:23:37;4.87;;;3.40;;
18505;SDS011;9382;53.242;10.438;2022-09-09T07:26:07;6.57;;;3.53;;
18505;SDS011;9382;53.242;10.438;2022-09-09T07:28:35;3.90;;;3.30;;
18505;SDS011;9382;53.242;10.438;2022-09-09T07:31:02;5.23;;;3.30;;
18505;SDS011;9382;53.242;10.438;2022-09-09T07:33:29;7.17;;;3.50;;
18505;SDS011;9382;53.242;10.438;2022-09-09T07:36:01;4.30;;;3.27;;
18505;SDS011;9382;53.242;10.438;2022-09-09T07:38:31;4.50;;;3.30;;
18505;SDS011;9382;53.242;10.438;2022-09-09T07:41:02;7.03;;;3.30;;
18505;SDS011;9382;53.242;10.438;2022-09-09T07:43:31;3.90;;;3.07;;
18505;SDS011;9382;53.242;10.438;2022-09-09T07:45:58;3.77;;;3.30;;
18505;SDS011;9382;53.242;10.438;2022-09-09T07:48:26;4.43;;;3.00;;
18505;SDS011;9382;53.242;10.438;2022-09-09T07:51:02;6.20;;;3.07;;
18505;SDS011;9382;53.242;10.438;2022-09-09T07:53:32;3.77;;;3.10;;
18505;SDS011;9382;53.242;10.438;2022-09-09T07:56:02;3.37;;;3.00;;
18505;SDS011;9382;53.242;10.438;2022-09-09T07:58:29;4.77;;;3.10;;
18505;SDS011;9382;53.242;10.438;2022-09-09T08:00:56;4.13;;;3.00;;
18505;SDS011;9382;53.242;10.438;2022-09-09T08:03:22;4.30;;;3.13;;
18505;SDS011;9382;53.242;10.438;2022-09-09T08:05:49;6.30;;;3.20;;
18505;SDS011;9382;53.242;10.438;2022-09-09T08:08:16;4.87;;;3.27;;
18505;SDS011;9382;53.242;10.438;2022-09-09T08:10:44;4.47;;;3.07;;
18505;SDS011;9382;53.242;10.438;2022-09-09T08:13:11;3.13;;;2.93;;
18505;SDS011;9382;53.242;10.438;2022-09-09T08:15:38;3.80;;;3.20;;
18505;SDS011;9382;53.242;10.438;2022-09-09T08:18:06;5.53;;;3.73;;
18505;SDS011;9382;53.242;10.438;2022-09-09T08:20:35;7.17;;;3.33;;
18505;SDS011;9382;53.242;10.438;2022-09-09T08:23:02;4.77;;;3.40;;
18505;SDS011;9382;53.242;10.438;2022-09-09T08:25:29;4.53;;;3.30;;
18505;SDS011;9382;53.242;10.438;2022-09-09T08:27:57;3.50;;;2.93;;
18505;SDS011;9382;53.242;10.438;2022-09-09T08:30:24;6.20;;;3.60;;
18505;SDS011;9382;53.242;10.438;2022-09-09T08:32:51;4.33;;;2.83;;
18505;SDS011;9382;53.242;10.438;2022-09-09T08:35:18;4.27;;;3.10;;
18505;SDS011;9382;53.242;10.438;2022-09-09T08:37:45;4.37;;;3.07;;
18505;SDS011;9382;53.242;10.438;2022-09-09T08:40:12;3.77;;;3.30;;
18505;SDS011;9382;53.242;10.438;2022-09-09T08:42:48;5.50;;;3.40;;
18505;SDS011;9382;53.242;10.438;2022-09-09T08:45:25;6.10;;;3.30;;
18505;SDS011;9382;53.242;10.438;2022-09-09T08:48:01;7.43;;;3.10;;
18505;SDS011;9382;53.242;10.438;2022-09-09T08:50:37;6.93;;;3.10;;
18505;SDS011;9382;53.242;10.438;2022-09-09T08:53:09;5.23;;;3.00;;
18505;SDS011;9382;53.242;10.438;2022-09-09T08:55:42;6.60;;;3.07;;
18505;SDS011;9382;53.242;10.438;2022-09-09T08:58:14;4.97;;;3.23;;
18505;SDS011;9382;53.242;10.438;2022-09-09T09:00:47;8.63;;;3.23;;
18505;SDS011;9382;53.242;10.438;2022-09-09T09:03:27;4.90;;;2.70;;
18505;SDS011;9382;53.242;10.438;2022-09-09T09:06:01;5.50;;;3.00;;
18505;SDS011;9382;53.242;10.438;2022-09-09T09:08:36;4.37;;;2.53;;
18505;SDS011;9382;53.242;10.438;2022-09-09T09:11:08;3.30;;;2.83;;
18505;SDS011;9382;53.242;10.438;2022-09-09T09:13:38;6.10;;;2.80;;
18505;SDS011;9382;53.242;10.438;2022-09-09T09:16:13;3.90;;;2.63;;
18505;SDS011;9382;53.242;10.438;2022-09-09T09:18:48;4.07;;;2.73;;
18505;SDS011;9382;53.242;10.438;2022-09-09T09:21:16;6.03;;;2.90;;
18505;SDS011;9382;53.242;10.438;2022-09-09T09:23:49;5.93;;;2.43;;
18505;SDS011;9382;53.242;10.438;2022-09-09T09:26:21;4.93;;;2.93;;
18505;SDS011;9382;53.242;10.438;2022-09-09T09:28:51;2.93;;;2.50;;
18505;SDS011;9382;53.242;10.438;2022-09-09T09:31:23;6.73;;;3.07;;
18505;SDS011;9382;53.242;10.438;2022-09-09T09:33:52;3.40;;;2.57;;
18505;SDS011;9382;53.242;10.438;2022-09-09T09:36:21;4.40;;;2.57;;
18505;SDS011;9382;53.242;10.438;2022-09-09T09:38:52;3.33;;;2.70;;
18505;SDS011;9382;53.242;10.438;2022-09-09T09:41:34;4.63;;;2.37;;
18505;SDS011;9382;53.242;10.438;2022-09-09T09:44:02;4.33;;;2.37;;
18505;SDS011;9382;53.242;10.438;2022-09-09T09:46:31;4.80;;;2.10;;
18505;SDS011;9382;53.242;10.438;2022-09-09T09:48:58;3.40;;;2.43;;
18505;SDS011;9382;53.242;10.438;2022-09-09T09:51:27;4.83;;;2.60;;
18505;SDS011;9382;53.242;10.438;2022-09-09T09:54:04;5.27;;;2.70;;
18505;SDS011;9382;53.242;10.438;2022-09-09T09:56:40;3.03;;;2.27;;
18505;SDS011;9382;53.242;10.438;2022-09-09T09:59:18;3.57;;;2.50;;
18505;SDS011;9382;53.242;10.438;2022-09-09T10:01:48;3.90;;;2.60;;
18505;SDS011;9382;53.242;10.438;2022-09-09T10:04:15;3.90;;;2.20;;
18505;SDS011;9382;53.242;10.438;2022-09-09T10:06:45;2.57;;;2.30;;
18505;SDS011;9382;53.242;10.438;2022-09-09T10:09:22;3.30;;;2.17;;
18505;SDS011;9382;53.242;10.438;2022-09-09T10:11:53;3.03;;;2.00;;
18505;SDS011;9382;53.242;10.438;2022-09-09T10:14:30;4.60;;;1.97;;
18505;SDS011;9382;53.242;10.438;2022-09-09T10:17:08;4.10;;;2.10;;
18505;SDS011;9382;53.242;10.438;2022-09-09T10:19:46;2.73;;;1.90;;
18505;SDS011;9382;53.242;10.438;2022-09-09T10:22:26;3.83;;;2.33;;
18505;SDS011;9382;53.242;10.438;2022-09-09T10:25:01;3.07;;;2.10;;
18505;SDS011;9382;53.242;10.438;2022-09-09T10:27:42;2.20;;;1.90;;
18505;SDS011;9382;53.242;10.438;2022-09-09T10:30:22;2.37;;;1.77;;
18505;SDS011;9382;53.242;10.438;2022-09-09T10:32:57;2.67;;;1.53;;
18505;SDS011;9382;53.242;10.438;2022-09-09T10:35:32;5.27;;;1.47;;
18505;SDS011;9382;53.242;10.438;2022-09-09T10:38:11;2.43;;;1.53;;
18505;SDS011;9382;53.242;10.438;2022-09-09T10:40:43;5.70;;;2.00;;
18505;SDS011;9382;53.242;10.438;2022-09-09T10:43:20;3.60;;;1.53;;
18505;SDS011;9382;53.242;10.438;2022-09-09T10:45:58;5.50;;;2.23;;
18505;SDS011;9382;53.242;10.438;2022-09-09T10:48:37;3.40;;;1.57;;
18505;SDS011;9382;53.242;10.438;2022-09-09T10:51:28;3.47;;;1.60;;
18505;SDS011;9382;53.242;10.438;2022-09-09T10:54:09;4.27;;;1.23;;
18505;SDS011;9382;53.242;10.438;2022-09-09T10:56:49;1.90;;;1.47;;
18505;SDS011;9382;53.242;10.438;2022-09-09T10:59:22;3.17;;;1.37;;
18505;SDS011;9382;53.242;10.438;2022-09-09T11:01:52;2.70;;;1.40;;
18505;SDS011;9382;53.242;10.438;2022-09-09T11:04:27;4.67;;;1.80;;
18505;SDS011;9382;53.242;10.438;2022-09-09T11:06:59;3.07;;;1.80;;
18505;SDS011;9382;53.242;10.438;2022-09-09T11:09:35;2.53;;;1.57;;
18505;SDS011;9382;53.242;10.438;2022-09-09T11:12:05;3.53;;;1.80;;
18505;SDS011;9382;53.242;10.438;2022-09-09T11:14:39;2.03;;;1.57;;
18505;SDS011;9382;53.242;10.438;2022-09-09T11:17:10;1.70;;;1.60;;
18505;SDS011;9382;53.242;10.438;2022-09-09T11:19:42;2.70;;;1.97;;
18505;SDS011;9382;53.242;10.438;2022-09-09T11:22:14;3.10;;;1.67;;
18505;SDS011;9382;53.242;10.438;2022-09-09T11:24:44;7.43;;;1.90;;
18505;SDS011;9382;53.242;10.438;2022-09-09T11:27:15;2.70;;;1.53;;
18505;SDS011;9382;53.242;10.438;2022-09-09T11:29:59;1.97;;;1.50;;
18505;SDS011;9382;53.242;10.438;2022-09-09T11:32:49;2.30;;;1.40;;
18505;SDS011;9382;53.242;10.438;2022-09-09T11:35:44;1.63;;;1.30;;
18505;SDS011;9382;53.242;10.438;2022-09-09T11:38:25;3.27;;;1.40;;
18505;SDS011;9382;53.242;10.438;2022-09-09T11:40:56;1.73;;;1.40;;
18505;SDS011;9382;53.242;10.438;2022-09-09T11:43:27;1.70;;;1.60;;
18505;SDS011;9382;53.242;10.438;2022-09-09T11:45:57;1.73;;;1.50;;
18505;SDS011;9382;53.242;10.438;2022-09-09T11:48:27;5.63;;;1.67;;
18505;SDS011;9382;53.242;10.438;2022-09-09T11:51:00;7.10;;;2.27;;
18505;SDS011;9382;53.242;10.438;2022-09-09T11:53:30;14.17;;;3.50;;
18505;SDS011;9382;53.242;10.438;2022-09-09T11:56:07;6.43;;;2.20;;
18505;SDS011;9382;53.242;10.438;2022-09-09T11:58:37;5.20;;;2.17;;
18505;SDS011;9382;53.242;10.438;2022-09-09T12:01:24;4.10;;;2.33;;
18505;SDS011;9382;53.242;10.438;2022-09-09T12:03:55;3.53;;;2.30;;
18505;SDS011;9382;53.242;10.438;2022-09-09T12:06:32;4.87;;;2.30;;
18505;SDS011;9382;53.242;10.438;2022-09-09T12:09:09;5.20;;;2.67;;
18505;SDS011;9382;53.242;10.438;2022-09-09T12:11:45;5.37;;;2.30;;
18505;SDS011;9382;53.242;10.438;2022-09-09T12:14:19;3.50;;;2.70;;
18505;SDS011;9382;53.242;10.438;2022-09-09T12:16:47;4.60;;;2.97;;
18505;SDS011;9382;53.242;10.438;2022-09-09T12:19:16;7.50;;;3.27;;
18505;SDS011;9382;53.242;10.438;2022-09-09T12:21:48;5.23;;;2.63;;
18505;SDS011;9382;53.242;10.438;2022-09-09T12:24:21;5.33;;;3.07;;
18505;SDS011;9382;53.242;10.438;2022-09-09T12:26:57;5.03;;;2.80;;
18505;SDS011;9382;53.242;10.438;2022-09-09T12:29:28;4.50;;;2.70;;
18505;SDS011;9382;53.242;10.438;2022-09-09T12:32:02;7.53;;;3.07;;
18505;SDS011;9382;53.242;10.438;2022-09-09T12:34:38;3.70;;;2.23;;
18505;SDS011;9382;53.242;10.438;2022-09-09T12:37:21;2.33;;;2.13;;
18505;SDS011;9382;53.242;10.438;2022-09-09T12:39:54;3.57;;;2.10;;
18505;SDS011;9382;53.242;10.438;2022-09-09T12:42:22;2.67;;;2.13;;
18505;SDS011;9382;53.242;10.438;2022-09-09T12:44:54;4.70;;;2.37;;
18505;SDS011;9382;53.242;10.438;2022-09-09T12:47:23;2.67;;;2.03;;
18505;SDS011;9382;53.242;10.438;2022-09-09T12:49:54;3.07;;;1.80;;
18505;SDS011;9382;53.242;10.438;2022-09-09T12:52:24;2.97;;;1.90;;
18505;SDS011;9382;53.242;10.438;2022-09-09T12:54:56;2.97;;;1.80;;
18505;SDS011;9382;53.242;10.438;2022-09-09T12:57:24;3.25;;;1.50;;
18505;SDS011;9382;53.242;10.438;2022-09-09T13:00:04;1.40;;;1.30;;
18505;SDS011;9382;53.242;10.438;2022-09-09T13:02:45;2.17;;;1.27;;
18505;SDS011;9382;53.242;10.438;2022-09-09T13:05:16;3.40;;;1.83;;
18505;SDS011;9382;53.242;10.438;2022-09-09T13:07:47;3.53;;;1.52;;
18505;SDS011;9382;53.242;10.438;2022-09-09T13:10:14;4.90;;;1.27;;
18505;SDS011;9382;53.242;10.438;2022-09-09T13:12:47;2.70;;;1.55;;
18505;SDS011;9382;53.242;10.438;2022-09-09T13:15:19;1.80;;;1.35;;
18505;SDS011;9382;53.242;10.438;2022-09-09T13:17:51;3.92;;;1.67;;
18505;SDS011;9382;53.242;10.438;2022-09-09T13:20:20;1.73;;;1.60;;
18505;SDS011;9382;53.242;10.438;2022-09-09T13:22:50;2.25;;;1.58;;
18505;SDS011;9382;53.242;10.438;2022-09-09T13:25:20;2.20;;;1.83;;
18505;SDS011;9382;53.242;10.438;2022-09-09T13:27:55;3.67;;;1.80;;
18505;SDS011;9382;53.242;10.438;2022-09-09T13:30:24;2.63;;;1.75;;
18505;SDS011;9382;53.242;10.438;2022-09-09T13:33:01;3.53;;;1.80;;
18505;SDS011;9382;53.242;10.438;2022-09-09T13:35:32;2.27;;;1.80;;
18505;SDS011;9382;53.242;10.438;2022-09-09T13:38:07;3.50;;;1.80;;
18505;SDS011;9382;53.242;10.438;2022-09-09T13:40:34;3.20;;;2.00;;
18505;SDS011;9382;53.242;10.438;2022-09-09T13:43:01;3.23;;;2.10;;
18505;SDS011;9382;53.242;10.438;2022-09-09T13:45:30;3.23;;;2.00;;
18505;SDS011;9382;53.242;10.438;2022-09-09T13:47:59;3.57;;;2.43;;
18505;SDS011;9382;53.242;10.438;2022-09-09T13:50:35;2.53;;;2.33;;
18505;SDS011;9382;53.242;10.438;2022-09-09T13:53:02;4.47;;;2.60;;
18505;SDS011;9382;53.242;10.438;2022-09-09T13:55:30;5.83;;;2.60;;
18505;SDS011;9382;53.242;10.438;2022-09-09T13:57:58;3.37;;;2.57;;
18505;SDS011;9382;53.242;10.438;2022-09-09T14:00:27;7.17;;;3.10;;
18505;SDS011;9382;53.242;10.438;2022-09-09T14:02:57;3.93;;;2.50;;
18505;SDS011;9382;53.242;10.438;2022-09-09T14:05:25;3.20;;;2.63;;
18505;SDS011;9382;53.242;10.438;2022-09-09T14:07:52;4.10;;;2.40;;
18505;SDS011;9382;53.242;10.438;2022-09-09T14:10:19;2.70;;;2.10;;
18505;SDS011;9382;53.242;10.438;2022-09-09T14:12:48;2.00;;;1.80;;
18505;SDS011;9382;53.242;10.438;2022-09-09T14:15:15;4.43;;;1.93;;
18505;SDS011;9382;53.242;10.438;2022-09-09T14:17:42;3.83;;;1.63;;
18505;SDS011;9382;53.242;10.438;2022-09-09T14:20:09;1.90;;;1.80;;
18505;SDS011;9382;53.242;10.438;2022-09-09T14:22:40;2.50;;;1.90;;
18505;SDS011;9382;53.242;10.438;2022-09-09T14:25:07;2.23;;;1.60;;
18505;SDS011;9382;53.242;10.438;2022-09-09T14:27:34;3.37;;;1.80;;
18505;SDS011;9382;53.242;10.438;2022-09-09T14:30:02;2.40;;;1.60;;
18505;SDS011;9382;53.242;10.438;2022-09-09T14:32:29;1.87;;;1.50;;
18505;SDS011;9382;53.242;10.438;2022-09-09T14:34:56;2.00;;;1.30;;
18505;SDS011;9382;53.242;10.438;2022-09-09T14:37:23;2.67;;;1.37;;
18505;SDS011;9382;53.242;10.438;2022-09-09T14:39:50;3.53;;;1.53;;
18505;SDS011;9382;53.242;10.438;2022-09-09T14:42:17;2.10;;;1.37;;
18505;SDS011;9382;53.242;10.438;2022-09-09T14:44:44;1.53;;;1.33;;
18505;SDS011;9382;53.242;10.438;2022-09-09T14:47:12;2.23;;;1.50;;
18505;SDS011;9382;53.242;10.438;2022-09-09T14:49:39;1.40;;;1.30;;
18505;SDS011;9382;53.242;10.438;2022-09-09T14:52:05;2.23;;;1.40;;
18505;SDS011;9382;53.242;10.438;2022-09-09T14:54:34;1.57;;;1.30;;
18505;SDS011;9382;53.242;10.438;2022-09-09T14:57:01;2.63;;;1.57;;
18505;SDS011;9382;53.242;10.438;2022-09-09T14:59:27;3.43;;;1.50;;
18505;SDS011;9382;53.242;10.438;2022-09-09T15:01:54;3.67;;;1.40;;